Time;durP1;ratioP1;P1;durP2;ratioP2;P2;SDS_P1;SDS_P2;PMS_P1;PMS_P2;Temp;Humidity;BMP_temperature;BMP_pressure;BME280_temperature;BME280_humidity;BME280_pressure;Samples;Min_cycle;Max_cycle;Signal;HPM_P1;HPM_P2
2023/01/17 00:02:14;;;;;;;87.72;49.85;;;12.90;70.00;;;;;;4919636;28;94708;-66
2023/01/17 00:10:13;;;;;;;85.05;49.55;;;13.00;69.60;;;;;;4928346;28;95347;-59
2023/01/17 00:12:44;;;;;;;85.53;49.72;;;12.90;69.70;;;;;;4918882;28;96326;-67
2023/01/17 00:15:10;;;;;;;84.57;49.58;;;12.90;69.60;;;;;;4916998;28;95688;-67
2023/01/17 00:17:35;;;;;;;84.13;49.25;;;12.90;69.80;;;;;;4923405;28;95217;-66
2023/01/17 01:35:17;;;;;;;85.38;49.50;;;12.60;69.40;;;;;;4928226;28;94250;-66
2023/01/17 01:37:43;;;;;;;86.07;49.45;;;12.60;69.10;;;;;;4919986;28;94553;-65
2023/01/17 01:40:09;;;;;;;86.85;49.63;;;12.60;69.70;;;;;;4921735;28;95794;-65
2023/01/17 01:42:35;;;;;;;85.15;49.65;;;12.50;69.30;;;;;;4914078;28;100310;-67
2023/01/17 01:45:14;;;;;;;84.97;49.45;;;12.50;69.20;;;;;;4927292;28;94868;-67
2023/01/17 01:47:41;;;;;;;86.25;49.65;;;12.50;69.10;;;;;;4921052;28;95303;-66
2023/01/17 01:50:09;;;;;;;85.95;49.47;;;12.50;69.40;;;;;;4937927;28;95209;-63
2023/01/17 01:52:41;;;;;;;85.90;49.30;;;12.50;69.20;;;;;;4915267;28;94870;-56
2023/01/17 01:55:22;;;;;;;85.38;49.40;;;12.50;69.30;;;;;;4921863;28;94977;-55
2023/01/17 01:57:50;;;;;;;85.70;49.60;;;12.40;69.20;;;;;;4928087;28;95547;-67
2023/01/17 02:00:23;;;;;;;86.43;49.28;;;12.40;69.80;;;;;;4909730;28;94783;-65
2023/01/17 02:02:51;;;;;;;86.82;49.75;;;12.40;69.30;;;;;;4918883;28;94521;-63
2023/01/17 02:05:20;;;;;;;87.30;49.45;;;12.40;69.10;;;;;;4924220;28;98589;-66
2023/01/17 02:07:57;;;;;;;85.95;49.30;;;12.40;69.10;;;;;;4924622;28;97951;-66
2023/01/17 02:10:23;;;;;;;87.60;49.75;;;12.40;69.10;;;;;;4927582;28;97125;-64
2023/01/17 02:12:50;;;;;;;87.28;49.88;;;12.40;69.10;;;;;;4918028;28;94505;-67
2023/01/17 02:15:16;;;;;;;87.10;49.83;;;12.40;69.10;;;;;;4916644;28;96086;-63
2023/01/17 02:18:19;;;;;;;87.05;49.65;;;12.40;69.10;;;;;;4927266;28;94329;-65
2023/01/17 02:21:11;;;;;;;86.88;49.35;;;12.40;69.20;;;;;;4910949;28;96151;-65
2023/01/17 02:24:02;;;;;;;86.03;49.53;;;12.40;69.00;;;;;;4921055;28;101337;-56
2023/01/17 02:26:39;;;;;;;87.25;49.92;;;12.40;69.10;;;;;;4923934;28;93714;-56
2023/01/17 02:29:53;;;;;;;87.75;49.40;;;12.40;69.20;;;;;;4925330;28;96956;-66
2023/01/17 02:32:51;;;;;;;86.57;49.55;;;12.40;69.10;;;;;;4903519;28;95098;-66
2023/01/17 02:36:03;;;;;;;87.05;49.83;;;12.30;69.00;;;;;;4909519;28;97174;-67
2023/01/17 02:38:37;;;;;;;88.35;49.60;;;12.30;69.00;;;;;;4919230;28;95553;-66
2023/01/17 02:41:15;;;;;;;86.47;49.47;;;12.30;68.90;;;;;;4920894;28;95029;-65
2023/01/17 02:43:41;;;;;;;87.28;49.63;;;12.30;68.20;;;;;;4916235;28;97709;-65
2023/01/17 02:46:07;;;;;;;86.68;49.42;;;12.30;68.90;;;;;;4933059;28;94873;-65
2023/01/17 02:48:35;;;;;;;85.82;49.50;;;12.20;68.90;;;;;;4913252;28;97381;-63
2023/01/17 02:51:19;;;;;;;86.90;49.70;;;12.30;69.00;;;;;;4916251;28;102562;-66
2023/01/17 02:54:07;;;;;;;87.13;49.63;;;12.20;68.80;;;;;;4912349;28;94409;-59
2023/01/17 02:56:38;;;;;;;86.78;49.75;;;12.20;68.90;;;;;;4925710;28;94739;-66
2023/01/17 02:59:30;;;;;;;;;;;12.20;68.90;;;;;;4914786;28;100725;-66
2023/01/17 03:02:17;;;;;;;85.90;49.53;;;12.20;68.80;;;;;;4912445;28;96891;-66
2023/01/17 03:05:24;;;;;;;85.38;49.17;;;12.20;68.90;;;;;;4925111;28;95100;-66
2023/01/17 03:07:51;;;;;;;88.20;50.17;;;12.20;68.70;;;;;;4907988;28;96045;-66
2023/01/17 03:10:18;;;;;;;86.53;49.30;;;12.20;68.70;;;;;;4926930;28;94476;-67
2023/01/17 03:12:44;;;;;;;87.85;49.50;;;12.20;68.80;;;;;;4925297;28;95192;-67
2023/01/17 03:15:12;;;;;;;88.38;49.95;;;12.20;68.80;;;;;;4920467;28;94854;-67
2023/01/17 03:17:43;;;;;;;87.35;50.05;;;12.20;68.80;;;;;;4926239;28;94917;-67
2023/01/17 03:20:09;;;;;;;85.95;49.45;;;12.20;68.60;;;;;;4926592;28;93703;-66
2023/01/17 03:22:35;;;;;;;86.72;49.35;;;12.20;68.70;;;;;;4913498;28;95152;-66
2023/01/17 03:25:00;;;;;;;86.32;49.42;;;12.10;68.60;;;;;;4917577;28;96671;-59
2023/01/17 03:27:26;;;;;;;86.43;49.55;;;12.10;68.80;;;;;;4921370;28;96803;-66
2023/01/17 03:29:52;;;;;;;87.03;49.65;;;12.20;68.70;;;;;;4920892;28;95217;-63
2023/01/17 03:32:17;;;;;;;86.63;49.45;;;12.10;68.70;;;;;;4909009;28;96082;-66
2023/01/17 03:34:43;;;;;;;87.88;49.88;;;12.10;68.70;;;;;;4920350;28;94614;-66
2023/01/17 03:37:09;;;;;;;87.47;49.60;;;12.10;68.60;;;;;;4933100;28;95167;-64
2023/01/17 03:39:34;;;;;;;86.80;49.65;;;12.10;68.70;;;;;;4917480;28;96865;-67
2023/01/17 03:42:00;;;;;;;87.60;49.63;;;12.10;68.60;;;;;;4926032;28;94879;-65
2023/01/17 03:44:25;;;;;;;88.55;49.78;;;12.10;68.60;;;;;;4923633;28;95624;-66
2023/01/17 03:46:51;;;;;;;87.10;49.72;;;12.10;68.50;;;;;;4921911;28;95062;-66
2023/01/17 03:49:17;;;;;;;87.57;49.97;;;12.10;68.70;;;;;;4907509;28;95325;-66
2023/01/17 03:51:42;;;;;;;89.73;49.57;;;12.10;68.60;;;;;;4905752;28;97100;-66
2023/01/17 03:54:08;;;;;;;86.63;49.43;;;12.00;68.70;;;;;;4923337;28;94577;-67
2023/01/17 03:56:33;;;;;;;88.03;49.60;;;12.10;68.60;;;;;;4920645;28;94312;-66
2023/01/17 03:58:59;;;;;;;86.30;49.17;;;12.10;68.60;;;;;;4909008;28;95668;-66
2023/01/17 04:01:25;;;;;;;85.90;49.20;;;12.10;68.60;;;;;;4926028;28;94278;-66
2023/01/17 04:03:50;;;;;;;86.88;49.40;;;12.10;68.50;;;;;;4926432;28;97859;-66
2023/01/17 04:06:16;;;;;;;88.37;49.80;;;12.10;68.50;;;;;;4909632;28;95487;-66
2023/01/17 04:08:42;;;;;;;86.50;49.35;;;12.10;68.50;;;;;;4918216;28;95463;-64
2023/01/17 04:11:07;;;;;;;86.75;49.63;;;12.00;68.50;;;;;;4926871;28;96043;-66
2023/01/17 04:13:33;;;;;;;85.72;49.53;;;12.00;69.10;;;;;;4925193;28;94705;-67
2023/01/17 04:15:59;;;;;;;86.85;49.20;;;12.10;68.60;;;;;;4921031;28;95709;-66
2023/01/17 04:18:24;;;;;;;88.18;49.33;;;12.10;68.40;;;;;;4917323;28;97297;-63
2023/01/17 04:20:50;;;;;;;85.72;48.97;;;12.10;68.60;;;;;;4924843;28;94352;-66
2023/01/17 04:23:16;;;;;;;86.68;49.53;;;12.10;69.00;;;;;;4916742;28;94603;-63
2023/01/17 04:25:42;;;;;;;87.82;49.70;;;12.10;68.30;;;;;;4917039;28;95669;-66
2023/01/17 04:28:09;;;;;;;87.30;49.53;;;12.00;68.20;;;;;;4915213;28;95177;-51
2023/01/17 04:30:35;;;;;;;87.43;49.83;;;12.00;68.50;;;;;;4921012;28;94834;-65
2023/01/17 04:33:01;;;;;;;87.20;49.45;;;12.00;68.40;;;;;;4919027;28;94127;-66
2023/01/17 04:35:30;;;;;;;88.72;49.50;;;12.00;68.30;;;;;;4919865;28;95371;-67
2023/01/17 04:37:55;;;;;;;88.20;49.42;;;12.00;68.20;;;;;;4936618;28;95078;-66
2023/01/17 04:40:21;;;;;;;89.43;49.70;;;12.00;68.30;;;;;;4920429;28;97783;-66
2023/01/17 04:42:47;;;;;;;87.40;49.63;;;12.00;68.40;;;;;;4919983;28;97242;-66
2023/01/17 04:45:14;;;;;;;87.60;49.63;;;12.00;68.50;;;;;;4920509;28;96181;-66
2023/01/17 04:47:40;;;;;;;87.97;49.47;;;12.00;68.50;;;;;;4920749;28;97129;-67
2023/01/17 04:50:06;;;;;;;88.55;49.55;;;12.00;68.50;;;;;;4920080;28;94587;-67
2023/01/17 04:52:32;;;;;;;90.00;49.40;;;11.90;68.50;;;;;;4918023;28;96065;-65
2023/01/17 04:54:57;;;;;;;87.70;49.40;;;11.90;68.40;;;;;;4912514;28;96781;-52
2023/01/17 04:57:24;;;;;;;88.47;49.53;;;11.90;68.30;;;;;;4919048;28;96667;-65
2023/01/17 04:59:50;;;;;;;88.93;49.63;;;11.90;68.50;;;;;;4924531;28;95784;-62
2023/01/17 05:02:15;;;;;;;88.57;49.50;;;11.90;68.40;;;;;;4917816;28;95477;-66
2023/01/17 05:04:41;;;;;;;88.03;49.47;;;11.90;69.00;;;;;;4913343;28;95553;-59
2023/01/17 05:07:07;;;;;;;88.03;49.65;;;11.90;68.50;;;;;;4921295;28;95238;-61
2023/01/17 05:09:33;;;;;;;91.47;49.50;;;11.90;68.10;;;;;;4927216;28;95553;-66
2023/01/17 05:11:58;;;;;;;87.97;49.90;;;11.90;68.40;;;;;;4925451;28;96535;-55
2023/01/17 05:14:25;;;;;;;88.33;49.40;;;11.90;68.40;;;;;;4928679;28;97249;-67
2023/01/17 05:16:54;;;;;;;87.67;49.50;;;12.00;68.20;;;;;;4922806;28;95348;-66
2023/01/17 05:19:20;;;;;;;88.20;49.53;;;11.90;68.20;;;;;;4919127;28;95977;-60
2023/01/17 05:21:46;;;;;;;88.68;49.40;;;11.90;68.40;;;;;;4926372;28;94342;-64
2023/01/17 05:24:11;;;;;;;88.93;50.07;;;11.90;68.30;;;;;;4919599;28;94525;-66
2023/01/17 05:26:37;;;;;;;89.47;49.23;;;11.90;68.40;;;;;;4926789;28;95371;-66
2023/01/17 05:29:03;;;;;;;91.47;49.80;;;11.80;68.40;;;;;;4925657;28;96379;-62
2023/01/17 05:31:28;;;;;;;86.77;49.67;;;11.90;68.40;;;;;;4919790;28;95135;-65
2023/01/17 05:33:54;;;;;;;87.90;49.83;;;11.90;68.30;;;;;;4926458;28;98561;-65
2023/01/17 05:36:20;;;;;;;87.97;49.60;;;11.90;68.40;;;;;;4922627;28;95624;-66
2023/01/17 05:38:45;;;;;;;89.23;49.60;;;11.90;68.30;;;;;;4918294;28;94622;-66
2023/01/17 05:41:11;;;;;;;89.67;49.70;;;11.80;68.30;;;;;;4921288;28;94369;-60
2023/01/17 05:43:36;;;;;;;88.80;49.83;;;11.80;68.40;;;;;;4914072;28;96442;-66
2023/01/17 05:46:02;;;;;;;89.53;49.77;;;11.80;68.30;;;;;;4916619;28;99130;-65
2023/01/17 05:48:28;;;;;;;89.80;50.30;;;11.80;68.50;;;;;;4924767;28;94250;-64
2023/01/17 05:50:53;;;;;;;94.33;49.90;;;11.90;67.90;;;;;;4921850;28;100342;-62
2023/01/17 05:53:19;;;;;;;90.23;49.83;;;11.90;67.90;;;;;;4913834;28;96533;-64
2023/01/17 05:55:46;;;;;;;91.17;50.30;;;11.90;68.20;;;;;;4925412;28;94720;-52
2023/01/17 05:58:15;;;;;;;89.30;50.27;;;11.90;68.30;;;;;;4918148;28;96401;-66
2023/01/17 06:00:41;;;;;;;90.90;50.07;;;11.90;68.20;;;;;;4919829;28;95884;-64
2023/01/17 06:03:07;;;;;;;92.33;50.07;;;11.90;68.40;;;;;;4922011;28;95964;-65
2023/01/17 06:05:33;;;;;;;95.37;50.50;;;12.00;68.30;;;;;;4927389;28;95184;-67
2023/01/17 06:07:59;;;;;;;94.47;50.07;;;12.00;68.20;;;;;;4926125;28;94348;-58
2023/01/17 06:10:25;;;;;;;91.73;50.50;;;12.00;68.10;;;;;;4914586;28;95232;-61
2023/01/17 06:13:06;;;;;;;92.47;50.53;;;12.00;68.10;;;;;;4909052;28;97023;-67
2023/01/17 06:15:34;;;;;;;90.83;50.00;;;12.00;68.30;;;;;;4907806;28;95143;-66
2023/01/17 06:18:07;;;;;;;96.93;50.57;;;12.00;68.90;;;;;;4924837;28;95496;-66
2023/01/17 06:20:33;;;;;;;88.73;50.23;;;12.00;69.00;;;;;;4915241;28;94866;-59
2023/01/17 06:23:06;;;;;;;91.43;50.37;;;12.00;68.90;;;;;;4911834;28;97895;-67
2023/01/17 06:25:42;;;;;;;90.60;50.50;;;12.00;68.90;;;;;;4908418;28;94625;-66
2023/01/17 06:28:09;;;;;;;95.77;50.57;;;12.00;69.10;;;;;;4898696;28;95908;-66
2023/01/17 06:30:35;;;;;;;91.20;50.67;;;12.00;69.20;;;;;;4915109;28;95213;-67
2023/01/17 06:33:01;;;;;;;92.20;51.17;;;11.90;69.00;;;;;;4924428;28;95998;-65
2023/01/17 06:35:26;;;;;;;92.27;50.60;;;12.00;69.70;;;;;;4914216;28;95049;-59
2023/01/17 06:37:54;;;;;;;90.63;50.83;;;11.90;69.80;;;;;;4920174;28;100064;-65
2023/01/17 06:40:24;;;;;;;91.20;50.90;;;12.00;70.00;;;;;;4912712;28;98050;-67
2023/01/17 06:42:49;;;;;;;94.90;50.73;;;12.00;69.80;;;;;;4910529;28;99506;-66
2023/01/17 06:45:15;;;;;;;93.30;50.60;;;12.00;70.10;;;;;;4912443;28;95494;-65
2023/01/17 06:47:41;;;;;;;93.90;50.83;;;12.00;69.80;;;;;;4922113;28;94494;-63
2023/01/17 06:50:09;;;;;;;93.67;50.30;;;11.90;69.40;;;;;;4919448;28;97726;-66
2023/01/17 06:52:35;;;;;;;93.10;50.07;;;11.80;70.00;;;;;;4928377;28;94761;-66
2023/01/17 06:55:01;;;;;;;91.23;50.40;;;11.80;70.00;;;;;;4921096;28;94077;-59
2023/01/17 06:57:26;;;;;;;90.53;50.70;;;11.80;69.80;;;;;;4930266;28;94837;-62
2023/01/17 06:59:52;;;;;;;91.40;50.70;;;11.80;69.90;;;;;;4922859;28;93825;-65
2023/01/17 07:02:17;;;;;;;90.07;50.47;;;11.70;69.90;;;;;;4923954;28;95094;-65
2023/01/17 07:04:43;;;;;;;91.37;50.70;;;11.80;69.90;;;;;;4925785;28;96092;-65
2023/01/17 07:07:09;;;;;;;92.47;50.60;;;11.70;69.90;;;;;;4914779;28;99127;-66
2023/01/17 07:09:34;;;;;;;90.60;50.90;;;11.70;69.80;;;;;;4918607;28;96043;-60
2023/01/17 07:12:00;;;;;;;91.80;50.60;;;11.70;69.90;;;;;;4925726;28;94299;-52
2023/01/17 07:14:29;;;;;;;96.73;50.93;;;11.70;69.50;;;;;;4929999;28;94344;-63
2023/01/17 07:16:56;;;;;;;93.73;50.57;;;11.70;69.70;;;;;;4921479;28;95759;-65
2023/01/17 07:19:22;;;;;;;91.47;50.20;;;11.70;69.60;;;;;;4922188;28;95369;-65
2023/01/17 07:21:51;;;;;;;91.03;50.07;;;11.70;69.50;;;;;;4929092;28;99591;-66
2023/01/17 07:24:18;;;;;;;91.37;50.57;;;11.60;69.40;;;;;;4929813;28;93578;-66
2023/01/17 07:26:47;;;;;;;93.37;50.50;;;11.60;69.40;;;;;;4930977;28;94949;-66
2023/01/17 07:29:13;;;;;;;91.23;50.50;;;11.60;69.30;;;;;;4923564;28;94009;-65
2023/01/17 07:31:39;;;;;;;91.37;50.80;;;11.60;69.20;;;;;;4931068;28;95318;-62
2023/01/17 07:34:05;;;;;;;110.77;50.87;;;11.60;69.10;;;;;;4924347;28;94666;-58
2023/01/17 07:36:31;;;;;;;92.23;50.87;;;11.60;69.30;;;;;;4919640;28;94425;-65
2023/01/17 07:38:56;;;;;;;90.67;50.57;;;11.60;69.10;;;;;;4925292;28;95139;-63
2023/01/17 07:41:22;;;;;;;90.13;50.37;;;11.60;69.20;;;;;;4927558;28;94948;-65
2023/01/17 07:43:48;;;;;;;92.40;50.43;;;11.50;69.00;;;;;;4924930;28;94113;-65
2023/01/17 07:46:14;;;;;;;89.27;50.30;;;11.60;69.10;;;;;;4922411;28;96869;-65
2023/01/17 07:48:40;;;;;;;89.93;49.93;;;11.50;69.00;;;;;;4931863;28;93609;-66
2023/01/17 07:51:07;;;;;;;88.93;50.07;;;11.60;69.20;;;;;;4925319;28;94425;-66
2023/01/17 07:53:32;;;;;;;91.47;50.53;;;11.50;68.90;;;;;;4916164;28;95232;-63
2023/01/17 07:56:06;;;;;;;91.43;50.20;;;11.50;69.70;;;;;;4924059;28;96150;-60
2023/01/17 07:58:33;;;;;;;88.67;50.23;;;11.60;68.90;;;;;;4933308;28;97007;-65
2023/01/17 08:01:08;;;;;;;92.00;50.77;;;11.50;68.70;;;;;;4925990;28;96884;-65
2023/01/17 08:03:38;;;;;;;89.13;50.13;;;11.50;68.70;;;;;;4923389;28;95536;-65
2023/01/17 08:06:25;;;;;;;88.17;50.63;;;11.60;68.70;;;;;;4924091;28;94910;-65
2023/01/17 08:08:57;;;;;;;88.50;50.43;;;11.50;68.60;;;;;;4918171;28;96765;-60
2023/01/17 08:11:23;;;;;;;94.87;50.10;;;11.50;68.60;;;;;;4927384;28;97267;-62
2023/01/17 08:13:55;;;;;;;88.50;50.67;;;11.50;68.70;;;;;;4917950;28;96323;-66
2023/01/17 08:16:20;;;;;;;88.05;50.10;;;11.50;68.60;;;;;;4918555;28;95417;-66
2023/01/17 08:18:46;;;;;;;89.50;50.23;;;11.50;68.60;;;;;;4923329;28;96599;-65
2023/01/17 08:21:13;;;;;;;92.57;49.80;;;11.50;68.50;;;;;;4928883;28;97453;-65
2023/01/17 08:23:39;;;;;;;89.50;50.47;;;11.50;68.30;;;;;;4928460;28;94587;-65
2023/01/17 08:26:05;;;;;;;90.80;50.27;;;11.50;68.40;;;;;;4925094;28;95300;-64
2023/01/17 08:28:30;;;;;;;89.73;50.50;;;11.50;68.40;;;;;;4925218;28;94810;-65
2023/01/17 08:30:56;;;;;;;88.70;49.97;;;11.50;68.20;;;;;;4926854;28;94389;-65
2023/01/17 08:33:22;;;;;;;90.57;50.30;;;11.50;68.00;;;;;;4928343;28;95845;-66
2023/01/17 08:35:54;;;;;;;89.23;50.13;;;11.60;68.00;;;;;;4927217;28;94621;-65
2023/01/17 08:38:22;;;;;;;89.83;50.27;;;11.60;67.90;;;;;;4930004;28;93757;-65
2023/01/17 08:40:49;;;;;;;92.57;50.70;;;11.60;67.70;;;;;;4922268;28;94352;-66
2023/01/17 08:43:15;;;;;;;93.60;51.03;;;11.60;67.70;;;;;;4922171;28;95046;-65
2023/01/17 08:45:43;;;;;;;97.60;51.07;;;11.60;67.80;;;;;;4927280;28;98078;-63
2023/01/17 08:48:09;;;;;;;91.90;51.13;;;11.70;68.40;;;;;;4932917;28;95290;-65
2023/01/17 08:50:35;;;;;;;88.67;50.90;;;11.60;68.60;;;;;;4927284;28;95835;-65
2023/01/17 08:53:00;;;;;;;91.63;50.93;;;11.60;67.90;;;;;;4919405;28;96133;-65
2023/01/17 08:55:26;;;;;;;91.33;50.83;;;11.60;68.00;;;;;;4932298;28;96624;-66
2023/01/17 08:57:52;;;;;;;95.40;51.00;;;11.60;68.00;;;;;;4933013;28;94913;-65
2023/01/17 09:00:18;;;;;;;90.63;50.60;;;11.60;68.10;;;;;;4927385;28;94514;-65
2023/01/17 09:02:43;;;;;;;90.80;50.90;;;11.60;68.00;;;;;;4928456;28;94003;-58
2023/01/17 09:05:10;;;;;;;93.33;51.47;;;11.60;68.10;;;;;;4932848;28;94507;-65
2023/01/17 09:07:35;;;;;;;92.40;51.00;;;11.60;67.80;;;;;;4924339;28;94598;-65
2023/01/17 09:10:01;;;;;;;93.67;50.60;;;11.60;67.70;;;;;;4926197;28;97592;-65
2023/01/17 09:12:31;;;;;;;91.00;50.63;;;11.60;67.80;;;;;;4926152;28;95508;-60
2023/01/17 09:14:56;;;;;;;92.33;50.70;;;11.60;68.00;;;;;;4925946;28;94696;-59
2023/01/17 09:17:22;;;;;;;91.87;50.50;;;11.60;68.00;;;;;;4931138;28;95468;-65
2023/01/17 09:19:47;;;;;;;93.07;51.27;;;11.70;67.80;;;;;;4931989;28;94203;-65
2023/01/17 09:22:14;;;;;;;94.83;51.20;;;11.70;68.50;;;;;;4928525;28;93915;-64
2023/01/17 09:24:40;;;;;;;92.53;51.13;;;11.70;67.60;;;;;;4923021;28;95057;-59
2023/01/17 09:27:06;;;;;;;95.13;50.67;;;11.70;67.40;;;;;;4925213;28;94852;-65
2023/01/17 09:29:32;;;;;;;91.20;50.67;;;11.70;67.30;;;;;;4919359;28;96140;-65
2023/01/17 09:31:59;;;;;;;91.20;50.90;;;11.80;67.30;;;;;;4926718;28;94403;-65
2023/01/17 09:34:24;;;;;;;92.00;51.33;;;11.80;67.40;;;;;;4918743;28;96016;-63
2023/01/17 09:36:50;;;;;;;90.37;50.67;;;11.80;67.00;;;;;;4923049;28;96201;-61
2023/01/17 09:39:15;;;;;;;94.37;51.10;;;11.80;67.10;;;;;;4923883;28;95493;-55
2023/01/17 09:42:01;;;;;;;92.77;50.77;;;11.80;67.00;;;;;;4928924;28;94298;-65
2023/01/17 09:44:38;;;;;;;94.13;51.10;;;11.80;67.20;;;;;;4924914;28;94429;-63
2023/01/17 09:47:18;;;;;;;91.70;50.97;;;11.80;67.30;;;;;;4923987;28;96310;-65
2023/01/17 09:49:45;;;;;;;92.10;51.07;;;11.80;67.30;;;;;;4920515;28;94575;-66
2023/01/17 09:52:15;;;;;;;95.53;51.47;;;11.80;67.50;;;;;;4933432;28;95052;-62
2023/01/17 09:54:43;;;;;;;95.00;51.70;;;11.80;67.20;;;;;;4923655;28;94498;-55
2023/01/17 09:57:21;;;;;;;93.70;51.47;;;11.80;67.10;;;;;;4930676;28;99614;-65
2023/01/17 10:00:24;;;;;;;93.70;51.67;;;11.80;67.20;;;;;;4919233;28;95716;-65
2023/01/17 10:03:02;;;;;;;93.23;51.57;;;11.80;67.20;;;;;;4924968;28;95795;-66
2023/01/17 10:05:48;;;;;;;101.10;52.63;;;11.90;67.00;;;;;;4917637;28;95193;-64
2023/01/17 10:08:31;;;;;;;92.47;51.67;;;11.90;67.30;;;;;;4921034;28;94794;-62
2023/01/17 10:11:27;;;;;;;98.20;52.00;;;11.90;66.50;;;;;;4924513;28;94575;-62
2023/01/17 10:14:22;;;;;;;93.03;51.57;;;11.90;66.40;;;;;;4919808;28;94515;-65
2023/01/17 10:17:02;;;;;;;94.90;51.87;;;11.90;66.10;;;;;;4933491;28;94422;-65
2023/01/17 10:19:49;;;;;;;95.00;52.00;;;12.00;66.20;;;;;;4914090;28;95051;-64
2023/01/17 10:22:34;;;;;;;96.70;51.90;;;12.00;66.30;;;;;;4924635;28;97435;-61
2023/01/17 10:25:28;;;;;;;92.27;51.43;;;12.10;66.20;;;;;;4921914;28;94274;-65
2023/01/17 10:27:57;;;;;;;92.20;51.43;;;12.20;66.00;;;;;;4919755;28;95806;-61
2023/01/17 10:30:47;;;;;;;96.53;51.63;;;12.40;65.70;;;;;;4924769;28;95168;-66
2023/01/17 10:33:20;;;;;;;94.37;51.23;;;12.40;65.50;;;;;;4921689;28;95719;-65
2023/01/17 10:36:14;;;;;;;96.33;51.63;;;12.50;65.30;;;;;;4932606;28;94679;-66
2023/01/17 10:38:45;;;;;;;98.63;51.58;;;12.60;65.10;;;;;;4921658;28;94617;-65
2023/01/17 10:41:21;;;;;;;92.35;51.33;;;12.70;64.90;;;;;;4925263;28;94612;-65
2023/01/17 10:44:06;;;;;;;92.82;51.25;;;12.80;64.80;;;;;;4917536;28;94764;-65
2023/01/17 10:46:43;;;;;;;97.33;52.03;;;12.90;64.50;;;;;;4924362;28;93944;-66
2023/01/17 10:49:21;;;;;;;102.25;51.58;;;13.00;64.60;;;;;;4923465;28;95290;-62
2023/01/17 10:52:04;;;;;;;96.05;51.85;;;13.20;64.30;;;;;;4911385;28;95778;-59
2023/01/17 10:55:02;;;;;;;98.43;51.15;;;13.40;64.20;;;;;;4918418;28;97226;-63
2023/01/17 10:57:31;;;;;;;93.03;50.75;;;13.50;63.40;;;;;;4917354;28;96152;-57
2023/01/17 10:59:59;;;;;;;95.72;52.00;;;13.60;63.20;;;;;;4912102;28;96382;-61
2023/01/17 11:02:36;;;;;;;95.40;51.35;;;13.70;63.20;;;;;;4918988;28;96306;-59
2023/01/17 11:05:18;;;;;;;97.55;51.78;;;13.80;62.70;;;;;;4917026;28;94976;-62
2023/01/17 11:07:57;;;;;;;95.53;51.65;;;13.80;63.00;;;;;;4927133;28;97606;-61
2023/01/17 11:10:43;;;;;;;95.38;51.65;;;13.90;62.60;;;;;;4912118;28;95865;-61
2023/01/17 11:13:23;;;;;;;95.28;51.42;;;13.90;62.60;;;;;;4935520;28;95570;-59
2023/01/17 11:15:56;;;;;;;93.32;51.72;;;14.10;62.60;;;;;;4917146;28;96699;-59
2023/01/17 11:18:26;;;;;;;95.95;51.70;;;14.10;62.40;;;;;;4901554;28;96431;-59
2023/01/17 11:20:52;;;;;;;96.65;51.85;;;14.20;62.30;;;;;;4910304;28;98620;-59
2023/01/17 11:23:28;;;;;;;95.35;51.97;;;14.40;62.10;;;;;;4922100;28;96052;-58
2023/01/17 11:26:01;;;;;;;95.28;51.90;;;14.40;62.50;;;;;;4913007;28;95397;-63
2023/01/17 11:28:32;;;;;;;93.45;51.30;;;14.50;62.00;;;;;;4913147;28;97181;-61
2023/01/17 11:31:08;;;;;;;94.40;51.97;;;14.60;61.60;;;;;;4915998;28;95767;-62
2023/01/17 11:33:44;;;;;;;96.57;51.60;;;14.60;61.80;;;;;;4909675;28;95934;-57
2023/01/17 11:36:17;;;;;;;95.57;51.47;;;14.60;61.80;;;;;;4926391;28;95183;-63
2023/01/17 11:38:55;;;;;;;94.07;51.35;;;14.70;61.80;;;;;;4927401;28;95109;-60
2023/01/17 11:41:22;;;;;;;93.43;51.00;;;14.70;61.80;;;;;;4915647;28;95247;-63
2023/01/17 11:43:54;;;;;;;95.55;51.35;;;14.70;61.80;;;;;;4924595;28;95839;-63
2023/01/17 11:46:20;;;;;;;96.28;51.65;;;14.70;61.70;;;;;;4915402;28;99569;-62
2023/01/17 11:48:51;;;;;;;94.15;51.45;;;14.70;61.70;;;;;;4918831;28;95018;-62
2023/01/17 11:51:24;;;;;;;94.78;51.50;;;14.70;61.80;;;;;;4915480;28;96011;-61
2023/01/17 11:53:51;;;;;;;92.35;51.03;;;14.70;61.90;;;;;;4904537;28;97105;-62
2023/01/17 11:56:29;;;;;;;94.25;51.05;;;14.70;61.90;;;;;;4910738;28;96390;-63
2023/01/17 11:59:36;;;;;;;93.50;51.30;;;14.70;62.10;;;;;;4914210;28;95084;-56
2023/01/17 12:02:23;;;;;;;93.50;51.33;;;14.60;62.10;;;;;;4912248;28;101161;-62
2023/01/17 12:05:14;;;;;;;94.93;51.47;;;14.70;62.10;;;;;;4914362;28;95389;-63
2023/01/17 12:08:06;;;;;;;96.18;51.47;;;14.60;62.00;;;;;;4922913;28;94997;-62
2023/01/17 12:11:07;;;;;;;93.03;51.17;;;14.60;61.90;;;;;;4921502;28;99895;-62
2023/01/17 12:14:00;;;;;;;91.40;51.07;;;14.60;62.00;;;;;;4919430;28;96327;-63
2023/01/17 12:16:49;;;;;;;92.75;52.28;;;14.50;61.90;;;;;;4919030;28;97249;-61
2023/01/17 12:19:18;;;;;;;95.03;52.65;;;14.50;62.30;;;;;;4912803;28;97900;-60
2023/01/17 12:22:05;;;;;;;93.93;52.10;;;14.50;62.20;;;;;;4917754;28;95757;-63
2023/01/17 12:25:15;;;;;;;94.70;52.17;;;14.50;62.10;;;;;;4917398;28;95583;-63
2023/01/17 12:28:08;;;;;;;93.68;51.90;;;14.50;61.80;;;;;;4924927;28;96276;-58
2023/01/17 12:30:37;;;;;;;94.22;51.88;;;14.60;61.60;;;;;;4935049;28;95260;-62
2023/01/17 12:33:11;;;;;;;95.72;52.28;;;14.70;61.40;;;;;;4934573;28;94271;-63
2023/01/17 12:35:51;;;;;;;93.22;51.92;;;14.80;61.40;;;;;;4930909;28;94953;-63
2023/01/17 12:38:27;;;;;;;96.70;52.33;;;14.80;61.20;;;;;;4920208;28;97980;-62
2023/01/17 12:41:01;;;;;;;96.22;51.80;;;14.80;61.30;;;;;;4922758;28;97623;-59
2023/01/17 12:43:41;;;;;;;94.53;51.38;;;14.80;61.20;;;;;;4914602;28;96023;-61
2023/01/17 12:46:37;;;;;;;94.25;52.10;;;14.80;61.20;;;;;;4916182;28;96661;-59
2023/01/17 12:49:21;;;;;;;94.28;51.72;;;14.80;61.40;;;;;;4928097;28;95100;-63
2023/01/17 12:52:11;;;;;;;93.05;51.72;;;14.80;61.60;;;;;;4927189;28;95197;-65
2023/01/17 12:54:48;;;;;;;96.47;51.80;;;14.80;61.30;;;;;;4929179;28;96783;-59
2023/01/17 12:57:19;;;;;;;91.95;51.58;;;14.80;61.50;;;;;;4916827;28;98803;-63
2023/01/17 12:59:53;;;;;;;94.40;51.83;;;14.80;61.70;;;;;;4919756;28;95679;-62
2023/01/17 13:02:37;;;;;;;94.40;51.45;;;14.80;61.60;;;;;;4918770;28;95383;-64
2023/01/17 13:05:16;;;;;;;93.68;51.33;;;14.80;61.50;;;;;;4934187;28;95135;-64
2023/01/17 13:07:48;;;;;;;93.97;51.13;;;14.80;61.40;;;;;;4919351;28;97181;-61
2023/01/17 13:10:26;;;;;;;96.10;51.63;;;14.80;61.50;;;;;;4923563;28;94952;-62
2023/01/17 13:12:56;;;;;;;93.65;51.42;;;14.80;61.50;;;;;;4928760;28;95173;-61
2023/01/17 13:15:29;;;;;;;95.72;51.30;;;14.90;61.30;;;;;;4919056;28;96910;-62
2023/01/17 13:18:12;;;;;;;92.35;51.08;;;14.90;61.30;;;;;;4922733;28;99258;-61
2023/01/17 13:20:48;;;;;;;94.15;51.20;;;14.90;61.20;;;;;;4920597;28;95804;-60
2023/01/17 13:23:34;;;;;;;93.47;51.47;;;14.90;61.10;;;;;;4917803;28;101023;-61
2023/01/17 13:26:02;;;;;;;93.15;50.72;;;15.00;61.10;;;;;;4920136;28;94104;-56
2023/01/17 13:29:06;;;;;;;93.30;51.15;;;15.00;60.90;;;;;;4928432;28;98014;-61
2023/01/17 13:31:55;;;;;;;93.43;51.08;;;15.00;61.00;;;;;;4932845;28;96378;-62
2023/01/17 13:34:47;;;;;;;93.50;51.38;;;15.00;61.00;;;;;;4927800;28;95955;-63
2023/01/17 13:37:56;;;;;;;93.18;51.42;;;15.00;60.80;;;;;;4934853;28;95084;-63
2023/01/17 13:40:33;;;;;;;94.55;51.50;;;15.00;60.90;;;;;;4889116;28;96119;-62
2023/01/17 13:43:13;;;;;;;93.65;51.42;;;15.00;60.80;;;;;;4919720;28;95875;-61
2023/01/17 13:45:39;;;;;;;93.05;51.45;;;15.00;60.60;;;;;;4921296;28;95399;-64
2023/01/17 13:48:20;;;;;;;90.57;51.00;;;15.00;60.70;;;;;;4922463;28;100517;-57
2023/01/17 13:50:57;;;;;;;91.53;50.92;;;15.00;60.60;;;;;;4918683;28;96016;-62
2023/01/17 13:53:35;;;;;;;93.78;51.25;;;15.00;60.50;;;;;;4921277;28;94943;-64
2023/01/17 13:56:10;;;;;;;92.30;51.20;;;15.00;60.60;;;;;;4927197;28;95203;-63
2023/01/17 13:59:34;;;;;;;91.75;51.13;;;15.00;60.90;;;;;;4919193;28;94788;-59
2023/01/17 14:02:00;;;;;;;92.82;51.33;;;15.00;60.90;;;;;;4882219;28;97076;-62
2023/01/17 14:05:05;;;;;;;94.20;50.88;;;15.00;60.90;;;;;;4912522;28;98717;-62
2023/01/17 14:07:34;;;;;;;107.97;51.28;;;15.00;60.80;;;;;;4917608;28;94967;-60
2023/01/17 14:09:59;;;;;;;90.07;50.83;;;15.00;60.80;;;;;;4910321;28;95491;-63
2023/01/17 14:12:31;;;;;;;87.97;50.85;;;15.00;60.80;;;;;;4939193;28;95160;-60
2023/01/17 14:14:59;;;;;;;87.75;50.63;;;15.00;60.90;;;;;;4927544;28;97646;-57